createdAt,value
2022-10-19T00:00:51.966Z,14.63
2022-10-19T00:03:22.297Z,14.83
2022-10-19T00:05:50.286Z,14.27
2022-10-19T00:08:17.297Z,13.57
2022-10-19T00:10:44.283Z,13.13
2022-10-19T00:13:11.266Z,13.20
2022-10-19T00:15:41.537Z,12.70
2022-10-19T00:18:11.905Z,15.43
2022-10-19T00:20:38.874Z,15.53
2022-10-19T00:23:05.840Z,16.13
2022-10-19T00:25:32.854Z,15.63
2022-10-19T00:27:59.840Z,14.37
2022-10-19T00:30:26.851Z,13.43
2022-10-19T00:32:53.835Z,17.05
2022-10-19T00:35:20.818Z,15.90
2022-10-19T00:37:47.793Z,15.00
2022-10-19T00:40:14.872Z,13.83
2022-10-19T00:42:41.844Z,14.17
2022-10-19T00:45:16.480Z,13.87
2022-10-19T00:47:44.148Z,14.13
2022-10-19T00:50:11.682Z,15.17
2022-10-19T00:52:38.751Z,15.10
2022-10-19T00:55:07.495Z,14.33
2022-10-19T00:57:34.496Z,14.20
2022-10-19T01:00:02.218Z,13.83
2022-10-19T01:02:29.225Z,14.47
2022-10-19T01:04:56.398Z,14.53
2022-10-19T01:07:24.675Z,13.97
2022-10-19T01:09:51.818Z,14.50
2022-10-19T01:12:40.781Z,15.37
2022-10-19T01:15:31.056Z,16.07
2022-10-19T01:18:13.023Z,16.53
2022-10-19T01:21:04.677Z,17.30
2022-10-19T01:23:46.785Z,16.17
2022-10-19T01:26:16.642Z,16.83
2022-10-19T01:28:46.708Z,18.33
2022-10-19T01:31:27.876Z,15.87
2022-10-19T01:33:54.955Z,15.33
2022-10-19T01:36:24.934Z,16.13
2022-10-19T01:38:54.498Z,15.63
2022-10-19T01:41:29.143Z,14.33
2022-10-19T01:43:59.318Z,14.63
2022-10-19T01:46:35.116Z,13.67
2022-10-19T01:49:08.418Z,15.27
2022-10-19T01:51:39.121Z,15.53
2022-10-19T01:54:07.686Z,19.07
2022-10-19T01:56:34.887Z,17.57
2022-10-19T01:59:04.211Z,18.50
2022-10-19T02:01:33.791Z,17.20
2022-10-19T02:04:01.296Z,17.97
2022-10-19T02:06:28.370Z,18.33
2022-10-19T02:08:55.683Z,18.67
2022-10-19T02:11:23.283Z,19.23
2022-10-19T02:13:55.541Z,18.80
2022-10-19T02:16:26.221Z,23.83
2022-10-19T02:18:53.953Z,23.17
2022-10-19T02:21:21.207Z,22.33
2022-10-19T02:23:49.410Z,24.83
2022-10-19T02:26:19.222Z,20.43
2022-10-19T02:28:46.488Z,17.77
2022-10-19T02:31:13.693Z,17.20
2022-10-19T02:33:40.723Z,17.80
2022-10-19T02:36:07.879Z,17.67
2022-10-19T02:38:34.951Z,16.13
2022-10-19T02:41:08.407Z,17.00
2022-10-19T02:43:37.656Z,16.80
2022-10-19T02:46:07.449Z,16.80
2022-10-19T02:48:35.443Z,16.43
2022-10-19T02:51:02.900Z,14.53
2022-10-19T02:53:29.919Z,15.10
2022-10-19T02:55:56.934Z,17.50
2022-10-19T02:58:23.894Z,20.10
2022-10-19T03:00:50.964Z,17.47
2022-10-19T03:03:17.955Z,20.20
2022-10-19T03:05:44.942Z,19.87
2022-10-19T03:08:11.922Z,20.33
2022-10-19T03:10:38.905Z,19.77
2022-10-19T03:13:05.936Z,23.23
2022-10-19T03:15:32.903Z,22.17
2022-10-19T03:17:59.878Z,23.43
2022-10-19T03:20:26.944Z,22.80
2022-10-19T03:25:25.918Z,22.83
2022-10-19T03:27:52.898Z,22.23
2022-10-19T03:30:19.871Z,22.10
2022-10-19T03:32:46.839Z,23.27
2022-10-19T03:35:13.836Z,21.90
2022-10-19T03:37:40.856Z,27.23
2022-10-19T03:40:08.170Z,23.03
2022-10-19T03:42:35.159Z,26.50
2022-10-19T03:45:02.140Z,26.57
2022-10-19T03:47:29.186Z,25.77
2022-10-19T03:49:56.166Z,26.53
2022-10-19T03:52:23.123Z,25.07
2022-10-19T03:54:51.167Z,27.13
2022-10-19T03:57:18.163Z,27.60
2022-10-19T03:59:45.185Z,31.30
2022-10-19T04:02:12.161Z,27.70
2022-10-19T04:04:39.260Z,28.30
2022-10-19T04:07:06.279Z,30.37
2022-10-19T04:09:33.264Z,30.73
2022-10-19T04:12:00.236Z,29.63
2022-10-19T04:14:33.276Z,31.73
2022-10-19T04:17:06.323Z,37.75
2022-10-19T04:19:33.314Z,32.03
2022-10-19T04:22:00.475Z,32.93
2022-10-19T04:24:27.826Z,29.03
2022-10-19T04:26:55.441Z,32.30
2022-10-19T04:29:27.866Z,31.03
2022-10-19T04:31:57.005Z,30.30
2022-10-19T04:34:24.182Z,31.70
2022-10-19T04:36:51.180Z,32.17
2022-10-19T04:39:18.227Z,28.93
2022-10-19T04:41:45.199Z,30.30
2022-10-19T04:44:12.291Z,29.33
2022-10-19T04:46:39.442Z,29.27
2022-10-19T04:49:06.904Z,30.23
2022-10-19T04:51:34.070Z,30.40
2022-10-19T04:54:01.116Z,29.83
2022-10-19T04:56:29.040Z,29.53
2022-10-19T04:58:57.382Z,31.37
2022-10-19T05:01:25.355Z,30.97
2022-10-19T05:06:28.882Z,30.67
2022-10-19T05:08:55.963Z,33.73
2022-10-19T05:11:23.107Z,30.57
2022-10-19T05:13:50.090Z,30.47
2022-10-19T05:16:21.789Z,32.87
2022-10-19T05:18:52.636Z,32.63
2022-10-19T05:21:20.806Z,31.27
2022-10-19T05:23:47.796Z,32.40
2022-10-19T05:26:17.313Z,30.30
2022-10-19T05:28:48.029Z,28.23
2022-10-19T05:31:16.579Z,29.48
2022-10-19T05:33:43.753Z,30.60
2022-10-19T05:36:15.170Z,28.10
2022-10-19T05:38:42.622Z,29.17
2022-10-19T05:41:10.465Z,29.90
2022-10-19T05:43:37.548Z,29.53
2022-10-19T05:46:08.481Z,29.63
2022-10-19T05:48:36.029Z,31.03
2022-10-19T05:51:05.121Z,28.97
2022-10-19T05:53:32.857Z,28.30
2022-10-19T05:56:00.006Z,29.93
2022-10-19T05:58:27.262Z,30.67
2022-10-19T06:00:55.209Z,29.90
2022-10-19T06:03:22.621Z,30.67
2022-10-19T06:05:49.976Z,31.23
2022-10-19T06:08:17.906Z,29.73
2022-10-19T06:10:45.433Z,28.53
2022-10-19T06:13:14.619Z,27.37
2022-10-19T06:15:41.982Z,27.63
2022-10-19T06:18:09.977Z,28.23
2022-10-19T06:20:37.547Z,25.73
2022-10-19T06:23:05.487Z,25.20
2022-10-19T06:25:33.030Z,25.17
2022-10-19T06:28:00.134Z,23.20
2022-10-19T06:30:27.284Z,24.00
2022-10-19T06:32:54.521Z,22.17
2022-10-19T06:35:21.603Z,19.50
2022-10-19T06:37:48.561Z,18.93
2022-10-19T06:40:15.639Z,18.23
2022-10-19T06:42:42.603Z,16.53
2022-10-19T06:45:10.479Z,16.53
2022-10-19T06:47:38.479Z,19.60
2022-10-19T06:50:06.611Z,17.10
2022-10-19T06:52:34.620Z,16.33
2022-10-19T06:55:01.914Z,16.30
2022-10-19T06:57:28.899Z,15.60
2022-10-19T06:59:56.014Z,16.10
2022-10-19T07:02:22.983Z,15.50
2022-10-19T07:04:49.964Z,14.67
2022-10-19T07:07:16.975Z,14.77
2022-10-19T07:09:43.982Z,14.90
2022-10-19T07:12:10.947Z,15.30
2022-10-19T07:14:39.657Z,14.90
2022-10-19T07:17:07.631Z,15.27
2022-10-19T07:19:35.073Z,14.73
2022-10-19T07:22:02.070Z,17.40
2022-10-19T07:24:29.120Z,16.47
2022-10-19T07:26:56.181Z,15.30
2022-10-19T07:29:23.214Z,15.17
2022-10-19T07:31:50.212Z,14.10
2022-10-19T07:34:17.365Z,14.33
2022-10-19T07:36:45.973Z,17.17
2022-10-19T07:39:13.151Z,15.67
2022-10-19T07:41:40.140Z,15.20
2022-10-19T07:44:08.213Z,15.20
2022-10-19T07:46:37.212Z,15.73
2022-10-19T07:49:05.706Z,14.70
2022-10-19T07:51:32.775Z,14.97
2022-10-19T07:54:00.090Z,14.80
2022-10-19T07:56:27.887Z,14.83
2022-10-19T07:58:56.009Z,14.87
2022-10-19T08:01:24.166Z,17.35
2022-10-19T08:06:39.966Z,15.53
2022-10-19T08:09:07.114Z,15.63
2022-10-19T08:11:35.365Z,16.53
2022-10-19T08:14:03.121Z,14.93
2022-10-19T08:16:34.103Z,15.53
2022-10-19T08:19:03.899Z,14.40
2022-10-19T08:21:31.007Z,14.07
2022-10-19T08:23:57.647Z,13.73
2022-10-19T08:26:25.383Z,13.40
2022-10-19T08:28:51.968Z,13.23
2022-10-19T08:31:21.197Z,13.97
2022-10-19T08:33:50.268Z,13.03
2022-10-19T08:36:17.417Z,14.48
2022-10-19T08:38:44.947Z,13.60
2022-10-19T08:41:49.731Z,13.67
2022-10-19T08:44:27.510Z,13.40
2022-10-19T08:47:03.430Z,12.30
2022-10-19T08:49:31.991Z,11.70
2022-10-19T08:52:11.541Z,11.20
2022-10-19T08:57:41.763Z,10.93
2022-10-19T09:00:29.572Z,12.30
2022-10-19T09:03:27.144Z,13.30
2022-10-19T09:06:34.690Z,11.50
2022-10-19T09:09:01.344Z,13.13
2022-10-19T09:11:34.649Z,11.87
2022-10-19T09:14:13.760Z,12.00
2022-10-19T09:16:40.375Z,13.70
2022-10-19T09:19:21.891Z,12.07
2022-10-19T09:22:16.265Z,11.43
2022-10-19T09:24:53.875Z,11.97
2022-10-19T09:27:23.626Z,12.23
2022-10-19T09:29:58.337Z,12.30
2022-10-19T09:32:31.057Z,10.80
2022-10-19T09:35:02.301Z,10.40
2022-10-19T09:37:31.150Z,11.00
2022-10-19T09:39:57.931Z,10.70
2022-10-19T09:42:36.819Z,10.87
2022-10-19T09:45:19.729Z,10.30
2022-10-19T09:47:48.530Z,9.63
2022-10-19T09:50:25.134Z,8.33
2022-10-19T09:52:52.758Z,9.77
2022-10-19T09:55:28.537Z,8.10
2022-10-19T09:58:04.473Z,7.20
2022-10-19T10:00:37.255Z,6.23
2022-10-19T10:03:05.919Z,6.93
2022-10-19T10:05:38.598Z,7.00
2022-10-19T10:08:14.096Z,5.90
2022-10-19T10:10:45.260Z,6.40
2022-10-19T10:13:24.724Z,5.93
2022-10-19T10:16:00.117Z,5.70
2022-10-19T10:18:28.550Z,5.67
2022-10-19T10:21:25.287Z,5.10
2022-10-19T10:24:12.066Z,5.07
2022-10-19T10:26:41.878Z,4.73
2022-10-19T10:29:18.482Z,4.53
2022-10-19T10:31:51.760Z,5.18
2022-10-19T10:34:51.337Z,4.23
2022-10-19T10:37:24.164Z,4.27
2022-10-19T10:39:52.847Z,3.97
2022-10-19T10:42:29.234Z,4.40
2022-10-19T10:44:56.380Z,4.83
2022-10-19T10:47:23.320Z,3.77
2022-10-19T10:49:56.351Z,4.43
2022-10-19T10:52:23.499Z,3.80
2022-10-19T10:55:02.534Z,4.60
2022-10-19T10:57:34.255Z,4.53
2022-10-19T11:00:03.810Z,4.03
2022-10-19T11:02:36.600Z,4.37
2022-10-19T11:05:18.442Z,4.10
2022-10-19T11:07:48.242Z,3.97
2022-10-19T11:10:29.620Z,4.10
2022-10-19T11:13:05.604Z,3.70
2022-10-19T11:15:51.359Z,4.00
2022-10-19T11:18:34.710Z,3.97
2022-10-19T11:21:12.528Z,4.03
2022-10-19T11:24:18.744Z,3.50
2022-10-19T11:27:11.940Z,3.83
2022-10-19T11:30:19.921Z,4.00
2022-10-19T11:32:52.169Z,3.37
2022-10-19T11:35:49.559Z,3.70
2022-10-19T11:38:38.227Z,3.57
2022-10-19T11:41:20.046Z,3.77
2022-10-19T11:43:58.618Z,3.10
2022-10-19T11:46:34.085Z,3.40
2022-10-19T11:49:37.973Z,3.77
2022-10-19T11:52:46.301Z,3.30
2022-10-19T11:55:37.462Z,3.00
2022-10-19T11:58:15.668Z,3.37
2022-10-19T12:00:49.989Z,3.87
2022-10-19T12:03:34.709Z,3.83
2022-10-19T12:06:16.349Z,4.60
2022-10-19T12:09:01.327Z,3.90
2022-10-19T12:11:43.056Z,3.90
2022-10-19T12:14:14.694Z,4.10
2022-10-19T12:16:54.351Z,4.30
2022-10-19T12:19:24.871Z,3.70
2022-10-19T12:21:54.864Z,4.70
2022-10-19T12:24:24.371Z,4.30
2022-10-19T12:26:53.688Z,4.00
2022-10-19T12:29:35.752Z,3.90
2022-10-19T12:32:04.370Z,4.07
2022-10-19T12:34:31.221Z,4.17
2022-10-19T12:37:06.902Z,3.47
2022-10-19T12:39:43.097Z,3.50
2022-10-19T12:42:18.004Z,3.33
2022-10-19T12:44:44.534Z,3.20
2022-10-19T12:47:25.307Z,3.20
2022-10-19T12:49:58.540Z,3.40
2022-10-19T12:52:45.644Z,3.50
2022-10-19T12:55:15.075Z,4.10
2022-10-19T12:57:47.949Z,3.50
2022-10-19T13:00:23.105Z,4.18
2022-10-19T13:03:13.591Z,3.77
2022-10-19T13:05:40.311Z,4.00
2022-10-19T13:08:10.737Z,4.30
2022-10-19T13:10:40.319Z,3.97
2022-10-19T13:13:45.463Z,4.67
2022-10-19T13:16:30.348Z,4.13
2022-10-19T13:18:59.860Z,4.97
2022-10-19T13:22:00.104Z,4.43
2022-10-19T13:24:26.701Z,4.67
2022-10-19T13:27:02.234Z,4.63
2022-10-19T13:29:49.232Z,4.13
2022-10-19T13:32:34.946Z,3.83
2022-10-19T13:35:30.454Z,4.53
2022-10-19T13:38:09.177Z,4.70
2022-10-19T13:40:56.479Z,4.03
2022-10-19T13:43:38.008Z,4.37
2022-10-19T13:46:29.440Z,4.13
2022-10-19T13:49:02.430Z,4.37
2022-10-19T13:51:56.788Z,4.33
2022-10-19T13:54:32.230Z,4.70
2022-10-19T13:57:20.509Z,4.37
2022-10-19T14:00:11.511Z,3.80
2022-10-19T14:02:38.064Z,4.27
2022-10-19T14:05:22.832Z,4.00
2022-10-19T14:08:15.445Z,4.00
2022-10-19T14:11:00.601Z,3.90
2022-10-19T14:13:27.894Z,4.03
2022-10-19T14:15:57.012Z,4.20
2022-10-19T14:18:32.420Z,3.53
2022-10-19T14:21:00.298Z,3.83
2022-10-19T14:23:41.619Z,3.33
2022-10-19T14:26:23.218Z,3.27
2022-10-19T14:28:54.823Z,4.00
2022-10-19T14:31:25.026Z,4.00
2022-10-19T14:33:58.885Z,4.00
2022-10-19T14:36:30.608Z,3.30
2022-10-19T14:38:57.588Z,3.90
2022-10-19T14:41:27.119Z,4.20
2022-10-19T14:43:55.235Z,3.90
2022-10-19T14:46:21.867Z,3.60
2022-10-19T14:48:50.416Z,3.47
2022-10-19T14:51:28.440Z,3.63
2022-10-19T14:54:00.766Z,3.00
2022-10-19T14:56:33.588Z,3.03
2022-10-19T14:59:04.756Z,3.50
2022-10-19T15:01:31.399Z,3.60
2022-10-19T15:03:58.023Z,3.27
2022-10-19T15:06:29.734Z,3.30
2022-10-19T15:09:02.332Z,3.10
2022-10-19T15:11:32.741Z,3.70
2022-10-19T15:14:07.800Z,4.07
2022-10-19T15:16:51.142Z,3.37
2022-10-19T15:19:26.662Z,3.77
2022-10-19T15:22:14.410Z,3.70
2022-10-19T15:24:55.445Z,3.60
2022-10-19T15:27:23.580Z,3.20
2022-10-19T15:29:57.818Z,3.85
2022-10-19T15:32:31.883Z,3.77
2022-10-19T15:34:59.324Z,4.27
2022-10-19T15:39:58.937Z,3.83
2022-10-19T15:42:44.253Z,4.40
2022-10-19T15:45:31.511Z,4.10
2022-10-19T15:48:10.447Z,4.57
2022-10-19T15:50:39.385Z,4.33
2022-10-19T15:53:06.364Z,4.30
2022-10-19T15:55:33.337Z,3.87
2022-10-19T15:58:00.646Z,4.10
2022-10-19T16:00:29.155Z,4.13
2022-10-19T16:02:56.272Z,4.57
2022-10-19T16:05:23.631Z,5.00
2022-10-19T16:07:50.800Z,4.90
2022-10-19T16:10:28.293Z,4.20
2022-10-19T16:12:55.261Z,5.00
2022-10-19T16:15:23.631Z,4.50
2022-10-19T16:17:51.596Z,5.43
2022-10-19T16:20:18.593Z,5.47
2022-10-19T16:22:46.056Z,4.90
2022-10-19T16:25:14.102Z,5.00
2022-10-19T16:27:41.292Z,4.27
2022-10-19T16:30:08.836Z,4.87
2022-10-19T16:32:35.948Z,5.47
2022-10-19T16:35:02.959Z,5.30
2022-10-19T16:37:29.906Z,5.60
2022-10-19T16:39:56.949Z,5.90
2022-10-19T16:42:28.238Z,5.80
2022-10-19T16:44:57.540Z,6.13
2022-10-19T16:47:24.511Z,5.87
2022-10-19T16:49:57.828Z,5.67
2022-10-19T16:52:24.867Z,5.90
2022-10-19T16:54:51.822Z,5.30
2022-10-19T16:57:18.913Z,5.97
2022-10-19T16:59:46.011Z,5.77
2022-10-19T17:02:14.077Z,6.00
2022-10-19T17:04:41.060Z,6.37
2022-10-19T17:07:08.037Z,6.23
2022-10-19T17:09:43.024Z,6.40
2022-10-19T17:12:10.715Z,5.97
2022-10-19T17:14:39.297Z,6.50
2022-10-19T17:17:06.305Z,7.63
2022-10-19T17:19:33.332Z,7.50
2022-10-19T17:22:01.786Z,7.77
2022-10-19T17:24:29.204Z,7.13
2022-10-19T17:26:56.245Z,7.37
2022-10-19T17:29:23.783Z,7.67
2022-10-19T17:31:51.060Z,7.73
2022-10-19T17:34:18.309Z,7.83
2022-10-19T17:36:46.099Z,8.23
2022-10-19T17:39:15.022Z,9.50
2022-10-19T17:41:42.000Z,9.07
2022-10-19T17:44:08.958Z,9.50
2022-10-19T17:46:36.327Z,9.37
2022-10-19T17:49:04.096Z,9.47
2022-10-19T17:51:32.247Z,8.97
2022-10-19T17:54:00.508Z,9.70
2022-10-19T17:56:27.959Z,10.37
2022-10-19T17:58:56.063Z,10.55
2022-10-19T18:01:23.746Z,10.07
2022-10-19T18:03:51.118Z,10.93
2022-10-19T18:06:20.198Z,11.10
2022-10-19T18:08:51.787Z,10.90
2022-10-19T18:11:20.942Z,11.33
2022-10-19T18:13:49.007Z,11.47
2022-10-19T18:16:24.881Z,11.70
2022-10-19T18:18:59.394Z,13.23
2022-10-19T18:21:27.491Z,13.70
2022-10-19T18:23:56.521Z,12.70
2022-10-19T18:26:24.531Z,13.70
2022-10-19T18:28:52.431Z,13.47
2022-10-19T18:31:21.024Z,13.80
2022-10-19T18:33:48.354Z,14.90
2022-10-19T18:36:15.644Z,14.13
2022-10-19T18:38:42.647Z,15.77
2022-10-19T18:43:50.478Z,15.17
2022-10-19T18:46:18.806Z,15.50
2022-10-19T18:48:45.802Z,16.37
2022-10-19T18:51:14.368Z,16.03
2022-10-19T18:53:41.534Z,16.27
2022-10-19T18:56:10.131Z,15.93
2022-10-19T18:58:37.407Z,12.60
2022-10-19T19:01:08.912Z,12.30
2022-10-19T19:03:36.923Z,12.73
2022-10-19T19:06:24.678Z,12.27
2022-10-19T19:08:51.835Z,12.30
2022-10-19T19:11:19.744Z,13.17
2022-10-19T19:13:51.063Z,15.38
2022-10-19T19:16:18.300Z,15.30
2022-10-19T19:18:45.540Z,16.33
2022-10-19T19:21:15.612Z,16.27
2022-10-19T19:23:42.714Z,21.40
2022-10-19T19:26:10.502Z,18.90
2022-10-19T19:28:40.726Z,34.63
2022-10-19T19:31:09.609Z,19.63
2022-10-19T19:33:36.846Z,19.53
2022-10-19T19:36:07.578Z,15.10
2022-10-19T19:38:35.038Z,17.07
2022-10-19T19:41:06.230Z,15.30
2022-10-19T19:43:33.791Z,16.10
2022-10-19T19:46:04.828Z,15.93
2022-10-19T19:48:35.192Z,15.00
2022-10-19T19:51:02.218Z,14.50
2022-10-19T19:53:29.203Z,13.40
2022-10-19T19:55:56.307Z,13.60
2022-10-19T19:58:23.277Z,15.00
2022-10-19T20:00:50.246Z,14.53
2022-10-19T20:03:17.252Z,14.20
2022-10-19T20:05:44.224Z,14.30
2022-10-19T20:08:11.413Z,14.47
2022-10-19T20:10:39.685Z,15.03
2022-10-19T20:13:06.690Z,13.77
2022-10-19T20:15:33.899Z,14.57
2022-10-19T20:18:00.882Z,14.40
2022-10-19T20:20:27.855Z,14.67
2022-10-19T20:22:54.846Z,15.10
2022-10-19T20:25:21.823Z,14.70
2022-10-19T20:27:48.787Z,14.87
2022-10-19T20:30:15.852Z,16.88
2022-10-19T20:32:42.815Z,15.67
2022-10-19T20:35:09.873Z,15.40
2022-10-19T20:37:36.974Z,15.17
2022-10-19T20:40:08.581Z,14.83
2022-10-19T20:42:36.429Z,15.07
2022-10-19T20:45:03.861Z,15.10
2022-10-19T20:47:30.943Z,15.30
2022-10-19T20:49:57.957Z,16.90
2022-10-19T20:52:24.970Z,15.93
2022-10-19T20:54:52.017Z,15.87
2022-10-19T20:57:18.993Z,15.23
2022-10-19T20:59:45.997Z,16.33
2022-10-19T21:02:13.051Z,16.40
2022-10-19T21:04:40.187Z,18.63
2022-10-19T21:07:07.179Z,17.47
2022-10-19T21:09:34.259Z,17.60
2022-10-19T21:12:01.516Z,15.67
2022-10-19T21:14:29.309Z,15.83
2022-10-19T21:16:57.340Z,17.73
2022-10-19T21:19:25.446Z,16.20
2022-10-19T21:21:55.348Z,18.37
2022-10-19T21:24:23.717Z,16.13
2022-10-19T21:29:18.757Z,16.60
2022-10-19T21:31:48.804Z,17.13
2022-10-19T21:34:17.917Z,17.47
2022-10-19T21:36:44.938Z,16.13
2022-10-19T21:39:11.968Z,17.40
2022-10-19T21:41:39.147Z,18.37
2022-10-19T21:44:06.164Z,22.25
2022-10-19T21:46:33.222Z,18.27
2022-10-19T21:49:00.243Z,18.27
2022-10-19T21:51:42.304Z,18.37
2022-10-19T21:56:44.503Z,18.97
2022-10-19T21:59:12.067Z,18.53
2022-10-19T22:01:41.329Z,20.30
2022-10-19T22:04:11.374Z,20.63
2022-10-19T22:06:38.365Z,18.60
2022-10-19T22:09:06.599Z,18.53
2022-10-19T22:11:33.634Z,20.13
2022-10-19T22:14:01.776Z,17.23
2022-10-19T22:16:29.545Z,18.03
2022-10-19T22:18:56.899Z,20.83
2022-10-19T22:21:28.094Z,18.93
2022-10-19T22:24:00.285Z,17.67
2022-10-19T22:26:28.335Z,17.93
2022-10-19T22:28:56.802Z,16.83
2022-10-19T22:31:24.024Z,17.13
2022-10-19T22:33:51.050Z,17.30
2022-10-19T22:36:18.325Z,16.73
2022-10-19T22:38:45.384Z,18.90
2022-10-19T22:41:12.623Z,18.10
2022-10-19T22:43:39.623Z,17.10
2022-10-19T22:46:06.616Z,18.23
2022-10-19T22:48:34.487Z,20.57
2022-10-19T22:51:01.518Z,19.20
2022-10-19T22:53:28.473Z,18.30
2022-10-19T22:55:55.518Z,20.97
2022-10-19T22:58:22.475Z,25.38
2022-10-19T23:01:03.467Z,21.27
2022-10-19T23:03:30.574Z,18.90
2022-10-19T23:05:57.621Z,19.63
2022-10-19T23:08:24.684Z,19.87
2022-10-19T23:10:51.718Z,18.77
2022-10-19T23:13:18.676Z,17.77
2022-10-19T23:15:46.207Z,18.77
2022-10-19T23:18:13.567Z,18.77
2022-10-19T23:20:40.574Z,20.80
2022-10-19T23:23:07.631Z,22.07
2022-10-19T23:25:34.635Z,20.70
2022-10-19T23:28:01.859Z,18.93
2022-10-19T23:30:28.863Z,20.87
2022-10-19T23:32:55.817Z,23.08
2022-10-19T23:35:22.786Z,20.97
2022-10-19T23:37:49.751Z,21.13
2022-10-19T23:40:16.699Z,22.00
2022-10-19T23:42:43.684Z,20.57
2022-10-19T23:45:12.958Z,20.07
2022-10-19T23:47:39.921Z,18.40
2022-10-19T23:50:07.099Z,19.33
2022-10-19T23:52:34.158Z,17.70
2022-10-19T23:55:01.191Z,17.77
2022-10-19T23:57:28.149Z,18.37
2022-10-19T23:59:55.168Z,18.60
